sensor_id;sensor_type;location;lat;lon;timestamp;P1;durP1;ratioP1;P2;durP2;ratioP2
69381;SDS011;56560;50.692;12.844;2023-04-01T00:00:53;5.60;;;1.08;;
69381;SDS011;56560;50.692;12.844;2023-04-01T00:03:20;3.63;;;1.30;;
69381;SDS011;56560;50.692;12.844;2023-04-01T00:05:47;4.97;;;1.77;;
69381;SDS011;56560;50.692;12.844;2023-04-01T00:08:12;6.30;;;1.67;;
69381;SDS011;56560;50.692;12.844;2023-04-01T00:10:39;4.82;;;1.20;;
69381;SDS011;56560;50.692;12.844;2023-04-01T00:13:05;4.57;;;1.50;;
69381;SDS011;56560;50.692;12.844;2023-04-01T00:15:31;5.20;;;1.40;;
69381;SDS011;56560;50.692;12.844;2023-04-01T00:17:56;5.38;;;1.50;;
69381;SDS011;56560;50.692;12.844;2023-04-01T00:20:22;5.30;;;1.47;;
69381;SDS011;56560;50.692;12.844;2023-04-01T00:22:48;4.30;;;1.40;;
69381;SDS011;56560;50.692;12.844;2023-04-01T00:25:14;3.43;;;1.10;;
69381;SDS011;56560;50.692;12.844;2023-04-01T00:27:40;6.07;;;1.67;;
69381;SDS011;56560;50.692;12.844;2023-04-01T00:30:06;5.37;;;1.60;;
69381;SDS011;56560;50.692;12.844;2023-04-01T00:32:32;5.07;;;1.52;;
69381;SDS011;56560;50.692;12.844;2023-04-01T00:34:58;6.82;;;1.70;;
69381;SDS011;56560;50.692;12.844;2023-04-01T00:37:24;4.47;;;1.60;;
69381;SDS011;56560;50.692;12.844;2023-04-01T00:39:51;6.22;;;1.30;;
69381;SDS011;56560;50.692;12.844;2023-04-01T00:42:17;5.27;;;1.50;;
69381;SDS011;56560;50.692;12.844;2023-04-01T00:44:44;9.25;;;1.50;;
69381;SDS011;56560;50.692;12.844;2023-04-01T00:47:13;3.63;;;1.17;;
69381;SDS011;56560;50.692;12.844;2023-04-01T00:49:40;4.28;;;1.40;;
69381;SDS011;56560;50.692;12.844;2023-04-01T00:52:11;5.55;;;1.60;;
69381;SDS011;56560;50.692;12.844;2023-04-01T00:54:41;4.93;;;1.47;;
69381;SDS011;56560;50.692;12.844;2023-04-01T00:57:22;2.83;;;1.17;;
69381;SDS011;56560;50.692;12.844;2023-04-01T00:59:53;3.95;;;1.27;;
69381;SDS011;56560;50.692;12.844;2023-04-01T01:02:19;4.80;;;1.42;;
69381;SDS011;56560;50.692;12.844;2023-04-01T01:04:45;5.43;;;1.42;;
69381;SDS011;56560;50.692;12.844;2023-04-01T01:09:55;8.10;;;1.67;;
69381;SDS011;56560;50.692;12.844;2023-04-01T01:15:12;6.97;;;1.47;;
69381;SDS011;56560;50.692;12.844;2023-04-01T01:34:36;5.80;;;1.75;;
69381;SDS011;56560;50.692;12.844;2023-04-01T01:37:13;5.10;;;1.48;;
69381;SDS011;56560;50.692;12.844;2023-04-01T01:39:41;8.02;;;1.90;;
69381;SDS011;56560;50.692;12.844;2023-04-01T01:42:11;7.77;;;1.97;;
69381;SDS011;56560;50.692;12.844;2023-04-01T01:44:40;7.30;;;1.80;;
69381;SDS011;56560;50.692;12.844;2023-04-01T01:47:08;5.97;;;1.52;;
69381;SDS011;56560;50.692;12.844;2023-04-01T01:49:34;8.15;;;1.80;;
69381;SDS011;56560;50.692;12.844;2023-04-01T01:52:01;2.97;;;1.20;;
69381;SDS011;56560;50.692;12.844;2023-04-01T01:54:27;4.77;;;1.43;;
69381;SDS011;56560;50.692;12.844;2023-04-01T01:56:55;9.57;;;2.10;;
69381;SDS011;56560;50.692;12.844;2023-04-01T01:59:29;8.73;;;2.17;;
69381;SDS011;56560;50.692;12.844;2023-04-01T02:01:57;3.88;;;1.30;;
69381;SDS011;56560;50.692;12.844;2023-04-01T02:04:24;5.90;;;1.50;;
69381;SDS011;56560;50.692;12.844;2023-04-01T02:06:59;5.60;;;1.60;;
69381;SDS011;56560;50.692;12.844;2023-04-01T02:09:28;8.90;;;1.80;;
69381;SDS011;56560;50.692;12.844;2023-04-01T02:12:03;5.63;;;1.70;;
69381;SDS011;56560;50.692;12.844;2023-04-01T02:14:40;5.53;;;1.70;;
69381;SDS011;56560;50.692;12.844;2023-04-01T02:19:40;3.75;;;1.05;;
69381;SDS011;56560;50.692;12.844;2023-04-01T02:22:14;5.00;;;1.50;;
69381;SDS011;56560;50.692;12.844;2023-04-01T02:24:44;5.50;;;1.60;;
69381;SDS011;56560;50.692;12.844;2023-04-01T02:27:11;6.32;;;1.38;;
69381;SDS011;56560;50.692;12.844;2023-04-01T02:29:37;8.45;;;2.00;;
69381;SDS011;56560;50.692;12.844;2023-04-01T02:32:03;5.35;;;1.70;;
69381;SDS011;56560;50.692;12.844;2023-04-01T02:34:30;6.50;;;1.60;;
69381;SDS011;56560;50.692;12.844;2023-04-01T02:36:57;7.57;;;1.90;;
69381;SDS011;56560;50.692;12.844;2023-04-01T02:39:23;5.10;;;1.60;;
69381;SDS011;56560;50.692;12.844;2023-04-01T02:41:50;4.60;;;1.50;;
69381;SDS011;56560;50.692;12.844;2023-04-01T02:44:16;5.17;;;1.43;;
69381;SDS011;56560;50.692;12.844;2023-04-01T02:46:41;5.95;;;1.52;;
69381;SDS011;56560;50.692;12.844;2023-04-01T02:49:07;6.57;;;1.40;;
69381;SDS011;56560;50.692;12.844;2023-04-01T02:51:33;7.85;;;1.75;;
69381;SDS011;56560;50.692;12.844;2023-04-01T02:53:59;5.53;;;1.30;;
69381;SDS011;56560;50.692;12.844;2023-04-01T02:56:25;5.05;;;1.42;;
69381;SDS011;56560;50.692;12.844;2023-04-01T02:58:51;6.25;;;1.60;;
69381;SDS011;56560;50.692;12.844;2023-04-01T03:01:17;4.85;;;1.40;;
69381;SDS011;56560;50.692;12.844;2023-04-01T03:03:43;5.18;;;1.40;;
69381;SDS011;56560;50.692;12.844;2023-04-01T03:06:09;5.85;;;1.35;;
69381;SDS011;56560;50.692;12.844;2023-04-01T03:08:36;4.22;;;1.20;;
69381;SDS011;56560;50.692;12.844;2023-04-01T03:11:02;3.33;;;0.95;;
69381;SDS011;56560;50.692;12.844;2023-04-01T03:13:29;5.25;;;1.52;;
69381;SDS011;56560;50.692;12.844;2023-04-01T03:15:55;2.35;;;1.10;;
69381;SDS011;56560;50.692;12.844;2023-04-01T03:18:21;7.53;;;1.20;;
69381;SDS011;56560;50.692;12.844;2023-04-01T03:20:46;5.97;;;1.30;;
69381;SDS011;56560;50.692;12.844;2023-04-01T03:23:12;3.03;;;0.97;;
69381;SDS011;56560;50.692;12.844;2023-04-01T03:25:37;4.32;;;1.10;;
69381;SDS011;56560;50.692;12.844;2023-04-01T03:28:03;2.97;;;1.10;;
69381;SDS011;56560;50.692;12.844;2023-04-01T03:30:29;4.60;;;1.35;;
69381;SDS011;56560;50.692;12.844;2023-04-01T03:32:56;4.18;;;1.30;;
69381;SDS011;56560;50.692;12.844;2023-04-01T03:35:23;6.15;;;1.40;;
69381;SDS011;56560;50.692;12.844;2023-04-01T03:37:50;7.60;;;1.40;;
69381;SDS011;56560;50.692;12.844;2023-04-01T03:40:16;4.82;;;1.20;;
69381;SDS011;56560;50.692;12.844;2023-04-01T03:42:42;4.57;;;1.10;;
69381;SDS011;56560;50.692;12.844;2023-04-01T03:45:07;6.43;;;1.40;;
69381;SDS011;56560;50.692;12.844;2023-04-01T03:47:34;3.60;;;1.25;;
69381;SDS011;56560;50.692;12.844;2023-04-01T03:50:00;6.38;;;1.45;;
69381;SDS011;56560;50.692;12.844;2023-04-01T03:52:25;6.75;;;1.48;;
69381;SDS011;56560;50.692;12.844;2023-04-01T03:54:51;5.40;;;1.40;;
69381;SDS011;56560;50.692;12.844;2023-04-01T03:57:17;5.32;;;1.30;;
69381;SDS011;56560;50.692;12.844;2023-04-01T03:59:42;6.00;;;1.40;;
69381;SDS011;56560;50.692;12.844;2023-04-01T04:02:08;3.90;;;1.00;;
69381;SDS011;56560;50.692;12.844;2023-04-01T04:04:33;5.13;;;1.17;;
69381;SDS011;56560;50.692;12.844;2023-04-01T04:06:59;3.57;;;1.23;;
69381;SDS011;56560;50.692;12.844;2023-04-01T04:09:25;4.18;;;1.02;;
69381;SDS011;56560;50.692;12.844;2023-04-01T04:11:50;4.68;;;1.30;;
69381;SDS011;56560;50.692;12.844;2023-04-01T04:14:16;4.70;;;1.00;;
69381;SDS011;56560;50.692;12.844;2023-04-01T04:16:42;5.93;;;1.40;;
69381;SDS011;56560;50.692;12.844;2023-04-01T04:19:07;4.53;;;1.07;;
69381;SDS011;56560;50.692;12.844;2023-04-01T04:21:33;6.57;;;1.30;;
69381;SDS011;56560;50.692;12.844;2023-04-01T04:23:59;6.87;;;1.40;;
69381;SDS011;56560;50.692;12.844;2023-04-01T04:26:25;4.93;;;1.17;;
69381;SDS011;56560;50.692;12.844;2023-04-01T04:28:51;6.28;;;1.52;;
69381;SDS011;56560;50.692;12.844;2023-04-01T04:31:19;6.68;;;1.40;;
69381;SDS011;56560;50.692;12.844;2023-04-01T04:33:46;6.07;;;1.40;;
69381;SDS011;56560;50.692;12.844;2023-04-01T04:36:11;4.53;;;1.35;;
69381;SDS011;56560;50.692;12.844;2023-04-01T04:38:38;4.32;;;1.15;;
69381;SDS011;56560;50.692;12.844;2023-04-01T04:41:08;3.40;;;1.23;;
69381;SDS011;56560;50.692;12.844;2023-04-01T04:43:37;3.03;;;1.10;;
69381;SDS011;56560;50.692;12.844;2023-04-01T04:46:08;6.32;;;1.20;;
69381;SDS011;56560;50.692;12.844;2023-04-01T04:48:34;8.32;;;1.50;;
69381;SDS011;56560;50.692;12.844;2023-04-01T04:51:00;5.17;;;1.30;;
69381;SDS011;56560;50.692;12.844;2023-04-01T04:53:26;4.32;;;1.23;;
69381;SDS011;56560;50.692;12.844;2023-04-01T04:55:52;9.02;;;1.63;;
69381;SDS011;56560;50.692;12.844;2023-04-01T04:58:18;5.67;;;1.33;;
69381;SDS011;56560;50.692;12.844;2023-04-01T05:00:44;3.35;;;1.20;;
69381;SDS011;56560;50.692;12.844;2023-04-01T05:03:10;5.03;;;1.40;;
69381;SDS011;56560;50.692;12.844;2023-04-01T05:05:37;5.72;;;1.52;;
69381;SDS011;56560;50.692;12.844;2023-04-01T05:08:03;4.63;;;1.10;;
69381;SDS011;56560;50.692;12.844;2023-04-01T05:10:29;3.00;;;1.20;;
69381;SDS011;56560;50.692;12.844;2023-04-01T05:12:56;3.70;;;0.88;;
69381;SDS011;56560;50.692;12.844;2023-04-01T05:15:22;5.68;;;1.58;;
69381;SDS011;56560;50.692;12.844;2023-04-01T05:17:47;6.40;;;1.40;;
69381;SDS011;56560;50.692;12.844;2023-04-01T05:20:13;8.55;;;1.75;;
69381;SDS011;56560;50.692;12.844;2023-04-01T05:22:39;9.00;;;2.63;;
69381;SDS011;56560;50.692;12.844;2023-04-01T05:25:05;18.67;;;6.05;;
69381;SDS011;56560;50.692;12.844;2023-04-01T05:27:31;11.75;;;3.83;;
69381;SDS011;56560;50.692;12.844;2023-04-01T05:29:57;8.20;;;2.45;;
69381;SDS011;56560;50.692;12.844;2023-04-01T05:32:23;10.60;;;3.30;;
69381;SDS011;56560;50.692;12.844;2023-04-01T05:34:53;8.38;;;2.53;;
69381;SDS011;56560;50.692;12.844;2023-04-01T05:37:19;11.65;;;3.70;;
69381;SDS011;56560;50.692;12.844;2023-04-01T05:39:45;10.85;;;3.78;;
69381;SDS011;56560;50.692;12.844;2023-04-01T05:42:10;13.35;;;3.22;;
69381;SDS011;56560;50.692;12.844;2023-04-01T05:44:36;6.17;;;2.00;;
69381;SDS011;56560;50.692;12.844;2023-04-01T05:47:03;7.97;;;2.30;;
69381;SDS011;56560;50.692;12.844;2023-04-01T05:49:29;7.15;;;2.15;;
69381;SDS011;56560;50.692;12.844;2023-04-01T05:51:55;14.00;;;4.67;;
69381;SDS011;56560;50.692;12.844;2023-04-01T05:54:22;11.15;;;3.10;;
69381;SDS011;56560;50.692;12.844;2023-04-01T05:56:47;11.40;;;2.80;;
69381;SDS011;56560;50.692;12.844;2023-04-01T05:59:13;6.82;;;2.22;;
69381;SDS011;56560;50.692;12.844;2023-04-01T06:01:39;15.23;;;4.65;;
69381;SDS011;56560;50.692;12.844;2023-04-01T06:04:05;15.88;;;5.00;;
69381;SDS011;56560;50.692;12.844;2023-04-01T06:06:31;11.87;;;3.30;;
69381;SDS011;56560;50.692;12.844;2023-04-01T06:08:58;13.98;;;4.38;;
69381;SDS011;56560;50.692;12.844;2023-04-01T06:17:18;9.55;;;3.15;;
69381;SDS011;56560;50.692;12.844;2023-04-01T06:19:55;9.75;;;3.30;;
69381;SDS011;56560;50.692;12.844;2023-04-01T06:30:57;4.32;;;1.30;;
69381;SDS011;56560;50.692;12.844;2023-04-01T06:39:02;4.30;;;1.40;;
69381;SDS011;56560;50.692;12.844;2023-04-01T06:55:46;2.72;;;1.23;;
69381;SDS011;56560;50.692;12.844;2023-04-01T06:58:34;5.13;;;1.38;;
69381;SDS011;56560;50.692;12.844;2023-04-01T07:01:10;4.90;;;1.17;;
69381;SDS011;56560;50.692;12.844;2023-04-01T07:03:41;5.80;;;1.30;;
69381;SDS011;56560;50.692;12.844;2023-04-01T07:06:14;5.63;;;1.50;;
69381;SDS011;56560;50.692;12.844;2023-04-01T07:09:11;7.93;;;1.80;;
69381;SDS011;56560;50.692;12.844;2023-04-01T07:11:41;5.05;;;1.30;;
69381;SDS011;56560;50.692;12.844;2023-04-01T07:14:22;5.43;;;1.40;;
69381;SDS011;56560;50.692;12.844;2023-04-01T07:19:44;4.72;;;1.20;;
69381;SDS011;56560;50.692;12.844;2023-04-01T07:27:52;9.00;;;1.70;;
69381;SDS011;56560;50.692;12.844;2023-04-01T07:30:22;5.60;;;1.67;;
69381;SDS011;56560;50.692;12.844;2023-04-01T07:35:32;4.57;;;1.60;;
69381;SDS011;56560;50.692;12.844;2023-04-01T07:49:22;3.95;;;1.33;;
69381;SDS011;56560;50.692;12.844;2023-04-01T08:00:30;5.53;;;1.20;;
69381;SDS011;56560;50.692;12.844;2023-04-01T08:06:14;4.15;;;0.90;;
69381;SDS011;56560;50.692;12.844;2023-04-01T08:09:52;2.90;;;1.00;;
69381;SDS011;56560;50.692;12.844;2023-04-01T08:11:56;4.10;;;0.82;;
69381;SDS011;56560;50.692;12.844;2023-04-01T08:14:36;5.07;;;2.25;;
69381;SDS011;56560;50.692;12.844;2023-04-01T08:17:11;4.05;;;1.08;;
69381;SDS011;56560;50.692;12.844;2023-04-01T08:22:22;3.40;;;0.90;;
69381;SDS011;56560;50.692;12.844;2023-04-01T08:25:00;3.63;;;1.08;;
69381;SDS011;56560;50.692;12.844;2023-04-01T08:27:34;2.50;;;1.15;;
69381;SDS011;56560;50.692;12.844;2023-04-01T08:30:18;6.97;;;2.05;;
69381;SDS011;56560;50.692;12.844;2023-04-01T08:32:47;4.22;;;1.35;;
69381;SDS011;56560;50.692;12.844;2023-04-01T08:35:40;1.50;;;0.88;;
69381;SDS011;56560;50.692;12.844;2023-04-01T08:40:58;3.83;;;1.08;;
69381;SDS011;56560;50.692;12.844;2023-04-01T08:46:47;2.20;;;0.73;;
69381;SDS011;56560;50.692;12.844;2023-04-01T08:52:15;3.17;;;1.02;;
69381;SDS011;56560;50.692;12.844;2023-04-01T09:38:30;4.70;;;0.85;;
69381;SDS011;56560;50.692;12.844;2023-04-01T09:44:23;6.18;;;2.08;;
69381;SDS011;56560;50.692;12.844;2023-04-01T09:47:01;7.17;;;2.10;;
69381;SDS011;56560;50.692;12.844;2023-04-01T10:01:47;5.53;;;1.30;;
69381;SDS011;56560;50.692;12.844;2023-04-01T10:19:23;2.72;;;0.70;;
69381;SDS011;56560;50.692;12.844;2023-04-01T11:07:42;4.38;;;1.20;;
69381;SDS011;56560;50.692;12.844;2023-04-01T11:13:49;2.03;;;0.90;;
69381;SDS011;56560;50.692;12.844;2023-04-01T11:19:25;1.77;;;0.80;;
69381;SDS011;56560;50.692;12.844;2023-04-01T11:33:37;1.67;;;0.88;;
69381;SDS011;56560;50.692;12.844;2023-04-01T11:41:43;3.03;;;1.37;;
69381;SDS011;56560;50.692;12.844;2023-04-01T11:44:21;1.60;;;0.90;;
69381;SDS011;56560;50.692;12.844;2023-04-01T12:00:54;2.50;;;1.00;;
69381;SDS011;56560;50.692;12.844;2023-04-01T12:09:23;2.40;;;1.10;;
69381;SDS011;56560;50.692;12.844;2023-04-01T12:15:05;0.93;;;0.60;;
69381;SDS011;56560;50.692;12.844;2023-04-01T12:18:07;1.58;;;0.82;;
69381;SDS011;56560;50.692;12.844;2023-04-01T12:23:57;1.40;;;0.70;;
69381;SDS011;56560;50.692;12.844;2023-04-01T12:26:30;2.22;;;0.60;;
69381;SDS011;56560;50.692;12.844;2023-04-01T12:34:57;4.13;;;1.38;;
69381;SDS011;56560;50.692;12.844;2023-04-01T12:38:16;2.47;;;1.10;;
69381;SDS011;56560;50.692;12.844;2023-04-01T12:52:16;2.30;;;0.80;;
69381;SDS011;56560;50.692;12.844;2023-04-01T13:03:20;4.43;;;1.33;;
69381;SDS011;56560;50.692;12.844;2023-04-01T13:19:49;0.90;;;0.53;;
69381;SDS011;56560;50.692;12.844;2023-04-01T13:25:06;2.08;;;0.90;;
69381;SDS011;56560;50.692;12.844;2023-04-01T13:33:50;4.15;;;1.20;;
69381;SDS011;56560;50.692;12.844;2023-04-01T13:42:00;3.60;;;1.02;;
69381;SDS011;56560;50.692;12.844;2023-04-01T13:44:48;2.22;;;1.05;;
69381;SDS011;56560;50.692;12.844;2023-04-01T13:53:19;2.03;;;0.70;;
69381;SDS011;56560;50.692;12.844;2023-04-01T14:07:31;9.05;;;3.53;;
69381;SDS011;56560;50.692;12.844;2023-04-01T14:10:28;1.75;;;0.80;;
69381;SDS011;56560;50.692;12.844;2023-04-01T14:12:57;2.28;;;0.90;;
69381;SDS011;56560;50.692;12.844;2023-04-01T14:18:39;0.93;;;0.80;;
69381;SDS011;56560;50.692;12.844;2023-04-01T14:21:21;2.58;;;1.20;;
69381;SDS011;56560;50.692;12.844;2023-04-01T14:24:50;1.73;;;1.00;;
69381;SDS011;56560;50.692;12.844;2023-04-01T14:40:27;2.00;;;1.23;;
69381;SDS011;56560;50.692;12.844;2023-04-01T14:49:00;4.75;;;1.42;;
69381;SDS011;56560;50.692;12.844;2023-04-01T14:51:31;2.10;;;0.90;;
69381;SDS011;56560;50.692;12.844;2023-04-01T14:56:44;2.83;;;1.17;;
69381;SDS011;56560;50.692;12.844;2023-04-01T14:59:15;12.52;;;4.60;;
69381;SDS011;56560;50.692;12.844;2023-04-01T15:05:04;3.53;;;1.10;;
69381;SDS011;56560;50.692;12.844;2023-04-01T15:10:39;2.42;;;1.00;;
69381;SDS011;56560;50.692;12.844;2023-04-01T15:24:26;2.83;;;1.10;;
69381;SDS011;56560;50.692;12.844;2023-04-01T15:28:14;3.67;;;1.30;;
69381;SDS011;56560;50.692;12.844;2023-04-01T15:36:04;4.60;;;1.80;;
69381;SDS011;56560;50.692;12.844;2023-04-01T15:38:51;6.55;;;2.40;;
69381;SDS011;56560;50.692;12.844;2023-04-01T15:41:24;8.57;;;2.83;;
69381;SDS011;56560;50.692;12.844;2023-04-01T15:50:02;8.43;;;2.97;;
69381;SDS011;56560;50.692;12.844;2023-04-01T15:55:20;12.95;;;5.53;;
69381;SDS011;56560;50.692;12.844;2023-04-01T16:06:38;5.93;;;1.70;;
69381;SDS011;56560;50.692;12.844;2023-04-01T16:09:28;5.28;;;1.70;;
69381;SDS011;56560;50.692;12.844;2023-04-01T16:12:12;4.78;;;1.67;;
69381;SDS011;56560;50.692;12.844;2023-04-01T16:23:26;4.93;;;1.80;;
69381;SDS011;56560;50.692;12.844;2023-04-01T16:26:08;11.07;;;4.18;;
69381;SDS011;56560;50.692;12.844;2023-04-01T16:31:51;6.28;;;2.70;;
69381;SDS011;56560;50.692;12.844;2023-04-01T16:37:03;13.57;;;4.82;;
69381;SDS011;56560;50.692;12.844;2023-04-01T16:47:47;10.65;;;3.97;;
69381;SDS011;56560;50.692;12.844;2023-04-01T16:50:23;13.98;;;5.53;;
69381;SDS011;56560;50.692;12.844;2023-04-01T16:52:59;10.35;;;4.43;;
69381;SDS011;56560;50.692;12.844;2023-04-01T17:06:55;5.30;;;1.80;;
69381;SDS011;56560;50.692;12.844;2023-04-01T17:09:43;3.20;;;1.20;;
69381;SDS011;56560;50.692;12.844;2023-04-01T17:16:51;8.73;;;3.35;;
69381;SDS011;56560;50.692;12.844;2023-04-01T17:30:06;12.80;;;3.75;;
69381;SDS011;56560;50.692;12.844;2023-04-01T17:54:44;28.90;;;11.95;;
69381;SDS011;56560;50.692;12.844;2023-04-01T17:57:39;19.98;;;8.95;;
69381;SDS011;56560;50.692;12.844;2023-04-01T18:14:13;16.02;;;7.15;;
69381;SDS011;56560;50.692;12.844;2023-04-01T18:22:16;19.85;;;8.32;;
69381;SDS011;56560;50.692;12.844;2023-04-01T18:27:52;30.13;;;13.63;;
69381;SDS011;56560;50.692;12.844;2023-04-01T18:30:39;25.70;;;12.75;;
69381;SDS011;56560;50.692;12.844;2023-04-01T18:38:54;25.40;;;11.23;;
69381;SDS011;56560;50.692;12.844;2023-04-01T18:41:36;41.45;;;19.00;;
69381;SDS011;56560;50.692;12.844;2023-04-01T18:50:02;22.90;;;10.57;;
69381;SDS011;56560;50.692;12.844;2023-04-01T18:52:51;13.38;;;5.80;;
69381;SDS011;56560;50.692;12.844;2023-04-01T18:55:29;12.07;;;5.22;;
69381;SDS011;56560;50.692;12.844;2023-04-01T19:00:36;21.40;;;8.27;;
69381;SDS011;56560;50.692;12.844;2023-04-01T19:03:31;15.23;;;6.70;;
69381;SDS011;56560;50.692;12.844;2023-04-01T19:06:13;20.20;;;6.72;;
69381;SDS011;56560;50.692;12.844;2023-04-01T19:08:47;17.80;;;7.30;;
69381;SDS011;56560;50.692;12.844;2023-04-01T19:25:54;14.18;;;6.40;;
69381;SDS011;56560;50.692;12.844;2023-04-01T19:31:19;24.77;;;10.68;;
69381;SDS011;56560;50.692;12.844;2023-04-01T19:36:59;18.87;;;7.10;;
69381;SDS011;56560;50.692;12.844;2023-04-01T19:45:39;15.63;;;7.05;;
69381;SDS011;56560;50.692;12.844;2023-04-01T19:51:10;14.73;;;6.90;;
69381;SDS011;56560;50.692;12.844;2023-04-01T19:53:47;14.88;;;6.18;;
69381;SDS011;56560;50.692;12.844;2023-04-01T19:56:22;14.48;;;6.22;;
69381;SDS011;56560;50.692;12.844;2023-04-01T19:58:54;14.98;;;6.57;;
69381;SDS011;56560;50.692;12.844;2023-04-01T20:01:49;13.25;;;5.97;;
69381;SDS011;56560;50.692;12.844;2023-04-01T20:15:28;15.05;;;7.68;;
69381;SDS011;56560;50.692;12.844;2023-04-01T20:18:12;14.90;;;7.33;;
69381;SDS011;56560;50.692;12.844;2023-04-01T20:20:54;15.48;;;7.60;;
69381;SDS011;56560;50.692;12.844;2023-04-01T20:23:38;16.15;;;7.20;;
69381;SDS011;56560;50.692;12.844;2023-04-01T20:26:29;15.48;;;6.22;;
69381;SDS011;56560;50.692;12.844;2023-04-01T20:31:43;14.97;;;7.33;;
69381;SDS011;56560;50.692;12.844;2023-04-01T20:37:00;15.27;;;6.47;;
69381;SDS011;56560;50.692;12.844;2023-04-01T20:45:33;14.20;;;6.10;;
69381;SDS011;56560;50.692;12.844;2023-04-01T20:48:27;11.55;;;4.43;;
69381;SDS011;56560;50.692;12.844;2023-04-01T20:51:26;11.80;;;5.20;;
69381;SDS011;56560;50.692;12.844;2023-04-01T21:16:31;10.20;;;4.15;;
69381;SDS011;56560;50.692;12.844;2023-04-01T21:30:22;10.27;;;4.05;;
69381;SDS011;56560;50.692;12.844;2023-04-01T21:33:02;9.85;;;3.53;;
69381;SDS011;56560;50.692;12.844;2023-04-01T21:38:21;10.02;;;3.90;;
69381;SDS011;56560;50.692;12.844;2023-04-01T21:41:08;10.93;;;4.17;;
69381;SDS011;56560;50.692;12.844;2023-04-01T21:49:38;10.90;;;4.72;;
69381;SDS011;56560;50.692;12.844;2023-04-01T22:26:47;2.80;;;1.00;;
69381;SDS011;56560;50.692;12.844;2023-04-01T22:29:27;3.83;;;1.20;;
69381;SDS011;56560;50.692;12.844;2023-04-01T22:32:00;2.50;;;1.00;;
69381;SDS011;56560;50.692;12.844;2023-04-01T22:39:46;3.47;;;1.30;;
69381;SDS011;56560;50.692;12.844;2023-04-01T22:42:44;2.42;;;1.00;;
69381;SDS011;56560;50.692;12.844;2023-04-01T22:48:26;1.63;;;1.00;;
69381;SDS011;56560;50.692;12.844;2023-04-01T22:51:20;2.97;;;1.00;;
69381;SDS011;56560;50.692;12.844;2023-04-01T22:56:26;3.13;;;1.10;;
69381;SDS011;56560;50.692;12.844;2023-04-01T23:01:36;3.13;;;1.13;;
69381;SDS011;56560;50.692;12.844;2023-04-01T23:04:08;5.57;;;1.33;;
69381;SDS011;56560;50.692;12.844;2023-04-01T23:06:42;2.95;;;1.23;;
69381;SDS011;56560;50.692;12.844;2023-04-01T23:09:15;3.60;;;1.20;;
69381;SDS011;56560;50.692;12.844;2023-04-01T23:11:59;4.30;;;1.45;;
69381;SDS011;56560;50.692;12.844;2023-04-01T23:14:41;4.95;;;1.60;;
69381;SDS011;56560;50.692;12.844;2023-04-01T23:22:45;4.60;;;1.42;;
69381;SDS011;56560;50.692;12.844;2023-04-01T23:34:34;3.63;;;1.30;;
69381;SDS011;56560;50.692;12.844;2023-04-01T23:36:46;3.65;;;1.20;;
69381;SDS011;56560;50.692;12.844;2023-04-01T23:41:48;3.58;;;1.25;;
69381;SDS011;56560;50.692;12.844;2023-04-01T23:44:15;4.30;;;1.30;;
69381;SDS011;56560;50.692;12.844;2023-04-01T23:46:42;4.13;;;1.30;;
69381;SDS011;56560;50.692;12.844;2023-04-01T23:49:21;3.58;;;1.40;;
69381;SDS011;56560;50.692;12.844;2023-04-01T23:52:11;4.90;;;1.70;;
69381;SDS011;56560;50.692;12.844;2023-04-01T23:55:13;4.35;;;1.40;;
69381;SDS011;56560;50.692;12.844;2023-04-01T23:58:00;4.30;;;1.30;;
